sensor_id;sensor_type;location;lat;lon;timestamp;P1;durP1;ratioP1;P2;durP2;ratioP2
13951;SDS011;39535;52.192;9.886;2023-09-07T00:02:23;4.47;;;3.57;;
13951;SDS011;39535;52.192;9.886;2023-09-07T00:04:49;3.80;;;3.50;;
13951;SDS011;39535;52.192;9.886;2023-09-07T00:07:16;3.70;;;3.40;;
13951;SDS011;39535;52.192;9.886;2023-09-07T00:09:45;3.43;;;3.23;;
13951;SDS011;39535;52.192;9.886;2023-09-07T00:12:12;4.30;;;3.57;;
13951;SDS011;39535;52.192;9.886;2023-09-07T00:14:38;4.13;;;3.63;;
13951;SDS011;39535;52.192;9.886;2023-09-07T00:17:05;3.80;;;3.50;;
13951;SDS011;39535;52.192;9.886;2023-09-07T00:19:32;4.00;;;3.60;;
13951;SDS011;39535;52.192;9.886;2023-09-07T00:21:58;4.17;;;3.53;;
13951;SDS011;39535;52.192;9.886;2023-09-07T00:24:25;3.30;;;3.10;;
13951;SDS011;39535;52.192;9.886;2023-09-07T00:26:53;3.83;;;3.53;;
13951;SDS011;39535;52.192;9.886;2023-09-07T00:29:19;3.57;;;3.27;;
13951;SDS011;39535;52.192;9.886;2023-09-07T00:31:47;3.73;;;3.27;;
13951;SDS011;39535;52.192;9.886;2023-09-07T00:34:13;4.50;;;3.37;;
13951;SDS011;39535;52.192;9.886;2023-09-07T00:36:40;5.80;;;3.50;;
13951;SDS011;39535;52.192;9.886;2023-09-07T00:39:07;3.83;;;3.53;;
13951;SDS011;39535;52.192;9.886;2023-09-07T00:41:34;4.03;;;3.73;;
13951;SDS011;39535;52.192;9.886;2023-09-07T00:44:02;3.70;;;3.30;;
13951;SDS011;39535;52.192;9.886;2023-09-07T00:46:29;3.80;;;3.13;;
13951;SDS011;39535;52.192;9.886;2023-09-07T00:48:56;4.10;;;3.70;;
13951;SDS011;39535;52.192;9.886;2023-09-07T00:51:23;3.53;;;3.23;;
13951;SDS011;39535;52.192;9.886;2023-09-07T00:53:50;4.27;;;3.67;;
13951;SDS011;39535;52.192;9.886;2023-09-07T00:56:16;4.87;;;3.20;;
13951;SDS011;39535;52.192;9.886;2023-09-07T00:58:43;6.10;;;3.30;;
13951;SDS011;39535;52.192;9.886;2023-09-07T01:01:11;3.67;;;3.37;;
13951;SDS011;39535;52.192;9.886;2023-09-07T01:03:37;4.10;;;3.70;;
13951;SDS011;39535;52.192;9.886;2023-09-07T01:06:07;4.07;;;3.77;;
13951;SDS011;39535;52.192;9.886;2023-09-07T01:08:39;4.33;;;4.03;;
13951;SDS011;39535;52.192;9.886;2023-09-07T01:11:14;5.47;;;3.50;;
13951;SDS011;39535;52.192;9.886;2023-09-07T01:13:41;4.50;;;4.17;;
13951;SDS011;39535;52.192;9.886;2023-09-07T01:16:08;6.77;;;4.20;;
13951;SDS011;39535;52.192;9.886;2023-09-07T01:18:38;5.10;;;4.70;;
13951;SDS011;39535;52.192;9.886;2023-09-07T01:21:05;4.83;;;4.40;;
13951;SDS011;39535;52.192;9.886;2023-09-07T01:23:35;6.20;;;4.90;;
13951;SDS011;39535;52.192;9.886;2023-09-07T01:26:03;4.73;;;4.33;;
13951;SDS011;39535;52.192;9.886;2023-09-07T01:28:31;5.87;;;4.10;;
13951;SDS011;39535;52.192;9.886;2023-09-07T01:30:58;6.23;;;4.40;;
13951;SDS011;39535;52.192;9.886;2023-09-07T01:33:26;4.50;;;4.10;;
13951;SDS011;39535;52.192;9.886;2023-09-07T01:35:52;4.73;;;4.30;;
13951;SDS011;39535;52.192;9.886;2023-09-07T01:38:19;5.30;;;4.50;;
13951;SDS011;39535;52.192;9.886;2023-09-07T01:40:47;5.37;;;4.90;;
13951;SDS011;39535;52.192;9.886;2023-09-07T01:43:13;7.63;;;4.57;;
13951;SDS011;39535;52.192;9.886;2023-09-07T01:45:40;4.83;;;4.37;;
13951;SDS011;39535;52.192;9.886;2023-09-07T01:48:07;5.17;;;4.67;;
13951;SDS011;39535;52.192;9.886;2023-09-07T01:50:35;7.83;;;4.30;;
13951;SDS011;39535;52.192;9.886;2023-09-07T01:53:02;5.60;;;4.33;;
13951;SDS011;39535;52.192;9.886;2023-09-07T01:55:29;4.80;;;4.40;;
13951;SDS011;39535;52.192;9.886;2023-09-07T01:57:57;6.30;;;4.77;;
13951;SDS011;39535;52.192;9.886;2023-09-07T02:02:59;5.00;;;4.47;;
13951;SDS011;39535;52.192;9.886;2023-09-07T02:05:28;5.17;;;4.77;;
13951;SDS011;39535;52.192;9.886;2023-09-07T02:07:54;7.87;;;4.23;;
13951;SDS011;39535;52.192;9.886;2023-09-07T02:10:21;5.60;;;4.60;;
13951;SDS011;39535;52.192;9.886;2023-09-07T02:12:48;4.70;;;4.40;;
13951;SDS011;39535;52.192;9.886;2023-09-07T02:15:16;4.57;;;4.20;;
13951;SDS011;39535;52.192;9.886;2023-09-07T02:17:43;5.73;;;4.70;;
13951;SDS011;39535;52.192;9.886;2023-09-07T02:20:10;4.90;;;4.50;;
13951;SDS011;39535;52.192;9.886;2023-09-07T02:22:37;5.17;;;4.73;;
13951;SDS011;39535;52.192;9.886;2023-09-07T02:25:03;5.70;;;4.20;;
13951;SDS011;39535;52.192;9.886;2023-09-07T02:27:31;4.80;;;4.30;;
13951;SDS011;39535;52.192;9.886;2023-09-07T02:29:58;5.33;;;4.70;;
13951;SDS011;39535;52.192;9.886;2023-09-07T02:32:25;4.50;;;4.17;;
13951;SDS011;39535;52.192;9.886;2023-09-07T02:34:52;5.00;;;4.53;;
13951;SDS011;39535;52.192;9.886;2023-09-07T02:37:19;4.70;;;4.37;;
13951;SDS011;39535;52.192;9.886;2023-09-07T02:39:45;5.23;;;4.83;;
13951;SDS011;39535;52.192;9.886;2023-09-07T02:42:12;4.67;;;4.27;;
13951;SDS011;39535;52.192;9.886;2023-09-07T02:44:38;4.67;;;4.27;;
13951;SDS011;39535;52.192;9.886;2023-09-07T02:47:05;4.83;;;4.50;;
13951;SDS011;39535;52.192;9.886;2023-09-07T02:49:32;5.10;;;4.40;;
13951;SDS011;39535;52.192;9.886;2023-09-07T02:51:59;4.80;;;4.50;;
13951;SDS011;39535;52.192;9.886;2023-09-07T02:54:25;4.93;;;4.53;;
13951;SDS011;39535;52.192;9.886;2023-09-07T02:56:52;5.63;;;5.07;;
13951;SDS011;39535;52.192;9.886;2023-09-07T02:59:18;5.23;;;4.83;;
13951;SDS011;39535;52.192;9.886;2023-09-07T03:01:45;5.07;;;4.67;;
13951;SDS011;39535;52.192;9.886;2023-09-07T03:04:11;4.70;;;4.37;;
13951;SDS011;39535;52.192;9.886;2023-09-07T03:06:39;5.13;;;4.63;;
13951;SDS011;39535;52.192;9.886;2023-09-07T03:09:05;5.07;;;4.60;;
13951;SDS011;39535;52.192;9.886;2023-09-07T03:11:34;4.90;;;4.50;;
13951;SDS011;39535;52.192;9.886;2023-09-07T03:14:02;4.97;;;4.47;;
13951;SDS011;39535;52.192;9.886;2023-09-07T03:16:28;7.60;;;4.30;;
13951;SDS011;39535;52.192;9.886;2023-09-07T03:18:55;5.70;;;4.90;;
13951;SDS011;39535;52.192;9.886;2023-09-07T03:21:22;5.77;;;5.20;;
13951;SDS011;39535;52.192;9.886;2023-09-07T03:23:52;4.93;;;4.53;;
13951;SDS011;39535;52.192;9.886;2023-09-07T03:26:18;5.63;;;5.20;;
13951;SDS011;39535;52.192;9.886;2023-09-07T03:28:44;5.70;;;4.50;;
13951;SDS011;39535;52.192;9.886;2023-09-07T03:31:11;4.83;;;4.43;;
13951;SDS011;39535;52.192;9.886;2023-09-07T03:33:37;5.30;;;4.90;;
13951;SDS011;39535;52.192;9.886;2023-09-07T03:36:04;5.37;;;4.90;;
13951;SDS011;39535;52.192;9.886;2023-09-07T03:38:30;6.90;;;6.20;;
13951;SDS011;39535;52.192;9.886;2023-09-07T03:40:58;5.43;;;5.03;;
13951;SDS011;39535;52.192;9.886;2023-09-07T03:43:24;5.00;;;4.70;;
13951;SDS011;39535;52.192;9.886;2023-09-07T03:45:51;5.13;;;4.73;;
13951;SDS011;39535;52.192;9.886;2023-09-07T03:48:18;4.83;;;4.47;;
13951;SDS011;39535;52.192;9.886;2023-09-07T03:50:44;5.23;;;4.83;;
13951;SDS011;39535;52.192;9.886;2023-09-07T03:53:11;4.90;;;4.50;;
13951;SDS011;39535;52.192;9.886;2023-09-07T03:55:40;5.67;;;4.40;;
13951;SDS011;39535;52.192;9.886;2023-09-07T03:58:09;5.37;;;4.90;;
13951;SDS011;39535;52.192;9.886;2023-09-07T04:00:37;4.70;;;4.40;;
13951;SDS011;39535;52.192;9.886;2023-09-07T04:03:04;5.37;;;4.87;;
13951;SDS011;39535;52.192;9.886;2023-09-07T04:05:31;5.03;;;4.60;;
13951;SDS011;39535;52.192;9.886;2023-09-07T04:07:57;5.50;;;5.00;;
13951;SDS011;39535;52.192;9.886;2023-09-07T04:10:24;5.17;;;4.63;;
13951;SDS011;39535;52.192;9.886;2023-09-07T04:12:50;5.67;;;5.07;;
13951;SDS011;39535;52.192;9.886;2023-09-07T04:15:18;6.17;;;5.67;;
13951;SDS011;39535;52.192;9.886;2023-09-07T04:17:45;5.07;;;4.67;;
13951;SDS011;39535;52.192;9.886;2023-09-07T04:20:11;5.20;;;4.73;;
13951;SDS011;39535;52.192;9.886;2023-09-07T04:22:38;5.70;;;5.20;;
13951;SDS011;39535;52.192;9.886;2023-09-07T04:25:05;4.87;;;4.47;;
13951;SDS011;39535;52.192;9.886;2023-09-07T04:27:32;5.60;;;4.97;;
13951;SDS011;39535;52.192;9.886;2023-09-07T04:29:58;5.23;;;4.83;;
13951;SDS011;39535;52.192;9.886;2023-09-07T04:32:26;5.60;;;5.20;;
13951;SDS011;39535;52.192;9.886;2023-09-07T04:34:53;6.00;;;5.50;;
13951;SDS011;39535;52.192;9.886;2023-09-07T04:37:20;5.57;;;5.07;;
13951;SDS011;39535;52.192;9.886;2023-09-07T04:39:49;5.50;;;5.10;;
13951;SDS011;39535;52.192;9.886;2023-09-07T04:42:16;5.53;;;5.13;;
13951;SDS011;39535;52.192;9.886;2023-09-07T04:44:43;6.07;;;5.57;;
13951;SDS011;39535;52.192;9.886;2023-09-07T04:47:09;5.33;;;4.93;;
13951;SDS011;39535;52.192;9.886;2023-09-07T04:49:37;5.33;;;4.93;;
13951;SDS011;39535;52.192;9.886;2023-09-07T04:52:03;5.73;;;5.27;;
13951;SDS011;39535;52.192;9.886;2023-09-07T04:54:31;7.33;;;5.60;;
13951;SDS011;39535;52.192;9.886;2023-09-07T04:56:58;6.00;;;5.50;;
13951;SDS011;39535;52.192;9.886;2023-09-07T04:59:24;5.63;;;5.23;;
13951;SDS011;39535;52.192;9.886;2023-09-07T05:01:52;6.17;;;5.70;;
13951;SDS011;39535;52.192;9.886;2023-09-07T05:04:18;5.57;;;5.20;;
13951;SDS011;39535;52.192;9.886;2023-09-07T05:06:46;6.33;;;5.70;;
13951;SDS011;39535;52.192;9.886;2023-09-07T05:09:12;5.93;;;5.43;;
13951;SDS011;39535;52.192;9.886;2023-09-07T05:11:39;5.70;;;5.30;;
13951;SDS011;39535;52.192;9.886;2023-09-07T05:14:05;6.77;;;6.30;;
13951;SDS011;39535;52.192;9.886;2023-09-07T05:16:31;6.00;;;5.50;;
13951;SDS011;39535;52.192;9.886;2023-09-07T05:18:58;5.83;;;5.30;;
13951;SDS011;39535;52.192;9.886;2023-09-07T05:21:25;5.93;;;5.43;;
13951;SDS011;39535;52.192;9.886;2023-09-07T05:23:52;5.27;;;4.87;;
13951;SDS011;39535;52.192;9.886;2023-09-07T05:26:22;5.83;;;5.43;;
13951;SDS011;39535;52.192;9.886;2023-09-07T05:28:49;5.87;;;5.37;;
13951;SDS011;39535;52.192;9.886;2023-09-07T05:31:15;5.67;;;5.23;;
13951;SDS011;39535;52.192;9.886;2023-09-07T05:33:42;5.93;;;4.97;;
13951;SDS011;39535;52.192;9.886;2023-09-07T05:36:08;6.03;;;5.40;;
13951;SDS011;39535;52.192;9.886;2023-09-07T05:38:36;6.97;;;5.37;;
13951;SDS011;39535;52.192;9.886;2023-09-07T05:41:04;5.80;;;5.40;;
13951;SDS011;39535;52.192;9.886;2023-09-07T05:43:30;6.37;;;5.63;;
13951;SDS011;39535;52.192;9.886;2023-09-07T05:45:57;5.83;;;5.43;;
13951;SDS011;39535;52.192;9.886;2023-09-07T05:48:23;5.33;;;4.83;;
13951;SDS011;39535;52.192;9.886;2023-09-07T05:50:49;6.10;;;5.70;;
13951;SDS011;39535;52.192;9.886;2023-09-07T05:53:18;5.70;;;5.20;;
13951;SDS011;39535;52.192;9.886;2023-09-07T05:55:44;5.20;;;4.80;;
13951;SDS011;39535;52.192;9.886;2023-09-07T05:58:12;4.90;;;4.60;;
13951;SDS011;39535;52.192;9.886;2023-09-07T06:00:39;5.37;;;4.90;;
13951;SDS011;39535;52.192;9.886;2023-09-07T06:03:08;5.73;;;5.33;;
13951;SDS011;39535;52.192;9.886;2023-09-07T06:05:36;5.87;;;5.37;;
13951;SDS011;39535;52.192;9.886;2023-09-07T06:08:04;5.73;;;5.23;;
13951;SDS011;39535;52.192;9.886;2023-09-07T06:10:32;5.90;;;5.47;;
13951;SDS011;39535;52.192;9.886;2023-09-07T06:12:59;6.20;;;5.67;;
13951;SDS011;39535;52.192;9.886;2023-09-07T06:15:26;5.73;;;5.10;;
13951;SDS011;39535;52.192;9.886;2023-09-07T06:17:53;5.30;;;4.80;;
13951;SDS011;39535;52.192;9.886;2023-09-07T06:20:20;7.20;;;5.53;;
13951;SDS011;39535;52.192;9.886;2023-09-07T06:22:46;6.67;;;6.27;;
13951;SDS011;39535;52.192;9.886;2023-09-07T06:25:14;6.10;;;5.57;;
13951;SDS011;39535;52.192;9.886;2023-09-07T06:27:40;6.30;;;5.83;;
13951;SDS011;39535;52.192;9.886;2023-09-07T06:30:07;7.57;;;6.87;;
13951;SDS011;39535;52.192;9.886;2023-09-07T06:32:36;6.90;;;6.37;;
13951;SDS011;39535;52.192;9.886;2023-09-07T06:35:03;5.63;;;5.13;;
13951;SDS011;39535;52.192;9.886;2023-09-07T06:37:30;6.33;;;5.83;;
13951;SDS011;39535;52.192;9.886;2023-09-07T06:39:57;5.80;;;5.40;;
13951;SDS011;39535;52.192;9.886;2023-09-07T06:42:23;6.10;;;5.60;;
13951;SDS011;39535;52.192;9.886;2023-09-07T06:44:50;6.37;;;5.77;;
13951;SDS011;39535;52.192;9.886;2023-09-07T06:47:17;5.87;;;5.47;;
13951;SDS011;39535;52.192;9.886;2023-09-07T06:49:45;6.33;;;5.73;;
13951;SDS011;39535;52.192;9.886;2023-09-07T06:52:11;5.63;;;5.33;;
13951;SDS011;39535;52.192;9.886;2023-09-07T06:54:38;5.77;;;5.37;;
13951;SDS011;39535;52.192;9.886;2023-09-07T06:57:06;6.80;;;6.30;;
13951;SDS011;39535;52.192;9.886;2023-09-07T06:59:32;6.30;;;5.90;;
13951;SDS011;39535;52.192;9.886;2023-09-07T07:01:59;5.87;;;5.47;;
13951;SDS011;39535;52.192;9.886;2023-09-07T07:04:25;6.80;;;6.30;;
13951;SDS011;39535;52.192;9.886;2023-09-07T07:06:53;6.43;;;5.93;;
13951;SDS011;39535;52.192;9.886;2023-09-07T07:09:19;6.10;;;5.50;;
13951;SDS011;39535;52.192;9.886;2023-09-07T07:11:46;7.47;;;6.97;;
13951;SDS011;39535;52.192;9.886;2023-09-07T07:14:15;7.13;;;6.53;;
13951;SDS011;39535;52.192;9.886;2023-09-07T07:16:41;8.60;;;7.80;;
13951;SDS011;39535;52.192;9.886;2023-09-07T07:19:07;9.93;;;9.23;;
13951;SDS011;39535;52.192;9.886;2023-09-07T07:21:35;10.23;;;9.23;;
13951;SDS011;39535;52.192;9.886;2023-09-07T07:24:02;10.47;;;9.37;;
13951;SDS011;39535;52.192;9.886;2023-09-07T07:26:31;10.83;;;9.73;;
13951;SDS011;39535;52.192;9.886;2023-09-07T07:28:57;14.07;;;9.97;;
13951;SDS011;39535;52.192;9.886;2023-09-07T07:31:24;10.07;;;9.27;;
13951;SDS011;39535;52.192;9.886;2023-09-07T07:33:50;8.87;;;8.07;;
13951;SDS011;39535;52.192;9.886;2023-09-07T07:36:17;10.13;;;9.23;;
13951;SDS011;39535;52.192;9.886;2023-09-07T07:38:43;8.83;;;8.23;;
13951;SDS011;39535;52.192;9.886;2023-09-07T07:41:11;9.20;;;8.50;;
13951;SDS011;39535;52.192;9.886;2023-09-07T07:43:37;8.07;;;7.40;;
13951;SDS011;39535;52.192;9.886;2023-09-07T07:46:03;9.23;;;8.53;;
13951;SDS011;39535;52.192;9.886;2023-09-07T07:48:32;9.47;;;8.53;;
13951;SDS011;39535;52.192;9.886;2023-09-07T07:51:02;8.93;;;8.23;;
13951;SDS011;39535;52.192;9.886;2023-09-07T07:53:29;8.53;;;7.80;;
13951;SDS011;39535;52.192;9.886;2023-09-07T07:55:56;8.97;;;8.10;;
13951;SDS011;39535;52.192;9.886;2023-09-07T07:58:23;8.23;;;7.53;;
13951;SDS011;39535;52.192;9.886;2023-09-07T08:00:50;7.73;;;7.13;;
13951;SDS011;39535;52.192;9.886;2023-09-07T08:03:16;8.27;;;7.63;;
13951;SDS011;39535;52.192;9.886;2023-09-07T08:05:42;8.00;;;7.40;;
13951;SDS011;39535;52.192;9.886;2023-09-07T08:08:09;7.20;;;6.70;;
13951;SDS011;39535;52.192;9.886;2023-09-07T08:10:36;8.87;;;8.07;;
13951;SDS011;39535;52.192;9.886;2023-09-07T08:13:03;7.43;;;6.73;;
13951;SDS011;39535;52.192;9.886;2023-09-07T08:15:31;8.33;;;7.63;;
13951;SDS011;39535;52.192;9.886;2023-09-07T08:17:58;7.30;;;6.77;;
13951;SDS011;39535;52.192;9.886;2023-09-07T08:20:25;7.87;;;7.00;;
13951;SDS011;39535;52.192;9.886;2023-09-07T08:22:51;8.70;;;7.23;;
13951;SDS011;39535;52.192;9.886;2023-09-07T08:25:18;7.73;;;7.13;;
13951;SDS011;39535;52.192;9.886;2023-09-07T08:27:45;7.97;;;7.27;;
13951;SDS011;39535;52.192;9.886;2023-09-07T08:30:13;7.87;;;7.27;;
13951;SDS011;39535;52.192;9.886;2023-09-07T08:32:42;7.73;;;7.13;;
13951;SDS011;39535;52.192;9.886;2023-09-07T08:35:09;7.73;;;7.13;;
13951;SDS011;39535;52.192;9.886;2023-09-07T08:37:37;7.50;;;6.97;;
13951;SDS011;39535;52.192;9.886;2023-09-07T08:40:04;15.00;;;7.57;;
13951;SDS011;39535;52.192;9.886;2023-09-07T08:42:33;7.67;;;7.17;;
13951;SDS011;39535;52.192;9.886;2023-09-07T08:45:02;8.30;;;7.70;;
13951;SDS011;39535;52.192;9.886;2023-09-07T08:47:31;7.27;;;6.77;;
13951;SDS011;39535;52.192;9.886;2023-09-07T08:50:01;7.47;;;6.87;;
13951;SDS011;39535;52.192;9.886;2023-09-07T08:52:31;7.50;;;6.80;;
13951;SDS011;39535;52.192;9.886;2023-09-07T08:54:57;7.90;;;7.13;;
13951;SDS011;39535;52.192;9.886;2023-09-07T08:57:26;7.47;;;6.97;;
13951;SDS011;39535;52.192;9.886;2023-09-07T08:59:53;7.00;;;6.40;;
13951;SDS011;39535;52.192;9.886;2023-09-07T09:02:19;12.03;;;7.47;;
13951;SDS011;39535;52.192;9.886;2023-09-07T09:04:46;7.40;;;6.80;;
13951;SDS011;39535;52.192;9.886;2023-09-07T09:07:13;7.73;;;7.20;;
13951;SDS011;39535;52.192;9.886;2023-09-07T09:09:40;7.10;;;6.50;;
13951;SDS011;39535;52.192;9.886;2023-09-07T09:12:07;7.77;;;7.17;;
13951;SDS011;39535;52.192;9.886;2023-09-07T09:14:34;7.70;;;6.90;;
13951;SDS011;39535;52.192;9.886;2023-09-07T09:17:00;7.63;;;7.03;;
13951;SDS011;39535;52.192;9.886;2023-09-07T09:19:31;7.70;;;7.00;;
13951;SDS011;39535;52.192;9.886;2023-09-07T09:21:58;7.73;;;7.23;;
13951;SDS011;39535;52.192;9.886;2023-09-07T09:24:26;9.40;;;6.57;;
13951;SDS011;39535;52.192;9.886;2023-09-07T09:26:52;7.70;;;7.00;;
13951;SDS011;39535;52.192;9.886;2023-09-07T09:29:21;7.37;;;6.67;;
13951;SDS011;39535;52.192;9.886;2023-09-07T09:31:50;7.30;;;6.60;;
13951;SDS011;39535;52.192;9.886;2023-09-07T09:34:17;7.90;;;7.13;;
13951;SDS011;39535;52.192;9.886;2023-09-07T09:36:44;6.30;;;5.80;;
13951;SDS011;39535;52.192;9.886;2023-09-07T09:39:20;6.43;;;5.83;;
13951;SDS011;39535;52.192;9.886;2023-09-07T09:41:49;7.00;;;6.40;;
13951;SDS011;39535;52.192;9.886;2023-09-07T09:44:16;6.00;;;5.60;;
13951;SDS011;39535;52.192;9.886;2023-09-07T09:46:43;7.50;;;6.73;;
13951;SDS011;39535;52.192;9.886;2023-09-07T09:49:11;6.30;;;5.80;;
13951;SDS011;39535;52.192;9.886;2023-09-07T09:51:40;7.07;;;5.77;;
13951;SDS011;39535;52.192;9.886;2023-09-07T09:54:08;9.03;;;6.00;;
13951;SDS011;39535;52.192;9.886;2023-09-07T09:56:35;7.20;;;6.47;;
13951;SDS011;39535;52.192;9.886;2023-09-07T09:59:02;6.30;;;5.90;;
13951;SDS011;39535;52.192;9.886;2023-09-07T10:01:29;8.53;;;5.53;;
13951;SDS011;39535;52.192;9.886;2023-09-07T10:03:56;6.03;;;5.50;;
13951;SDS011;39535;52.192;9.886;2023-09-07T10:06:25;6.40;;;5.80;;
13951;SDS011;39535;52.192;9.886;2023-09-07T10:08:55;5.73;;;5.23;;
13951;SDS011;39535;52.192;9.886;2023-09-07T10:11:29;5.80;;;5.40;;
13951;SDS011;39535;52.192;9.886;2023-09-07T10:13:57;5.93;;;5.10;;
13951;SDS011;39535;52.192;9.886;2023-09-07T10:16:26;6.23;;;4.97;;
13951;SDS011;39535;52.192;9.886;2023-09-07T10:18:52;5.70;;;5.30;;
13951;SDS011;39535;52.192;9.886;2023-09-07T10:21:19;6.70;;;5.90;;
13951;SDS011;39535;52.192;9.886;2023-09-07T10:23:46;6.37;;;5.77;;
13951;SDS011;39535;52.192;9.886;2023-09-07T10:26:17;6.20;;;5.70;;
13951;SDS011;39535;52.192;9.886;2023-09-07T10:28:46;7.27;;;6.40;;
13951;SDS011;39535;52.192;9.886;2023-09-07T10:31:15;6.10;;;5.53;;
13951;SDS011;39535;52.192;9.886;2023-09-07T10:33:44;6.00;;;5.60;;
13951;SDS011;39535;52.192;9.886;2023-09-07T10:36:19;6.03;;;5.53;;
13951;SDS011;39535;52.192;9.886;2023-09-07T10:38:47;5.90;;;5.50;;
13951;SDS011;39535;52.192;9.886;2023-09-07T10:41:13;6.83;;;5.10;;
13951;SDS011;39535;52.192;9.886;2023-09-07T10:43:46;5.77;;;5.23;;
13951;SDS011;39535;52.192;9.886;2023-09-07T10:46:13;5.50;;;5.10;;
13951;SDS011;39535;52.192;9.886;2023-09-07T10:48:40;6.13;;;5.60;;
13951;SDS011;39535;52.192;9.886;2023-09-07T10:51:09;6.17;;;5.67;;
13951;SDS011;39535;52.192;9.886;2023-09-07T10:53:35;6.80;;;6.30;;
13951;SDS011;39535;52.192;9.886;2023-09-07T10:56:02;6.43;;;5.80;;
13951;SDS011;39535;52.192;9.886;2023-09-07T10:58:31;6.10;;;5.70;;
13951;SDS011;39535;52.192;9.886;2023-09-07T11:00:59;6.50;;;5.97;;
13951;SDS011;39535;52.192;9.886;2023-09-07T11:03:26;5.13;;;4.83;;
13951;SDS011;39535;52.192;9.886;2023-09-07T11:05:53;5.60;;;5.23;;
13951;SDS011;39535;52.192;9.886;2023-09-07T11:08:25;5.73;;;5.33;;
13951;SDS011;39535;52.192;9.886;2023-09-07T11:10:53;7.70;;;5.17;;
13951;SDS011;39535;52.192;9.886;2023-09-07T11:13:19;5.20;;;4.80;;
13951;SDS011;39535;52.192;9.886;2023-09-07T11:15:46;5.67;;;5.17;;
13951;SDS011;39535;52.192;9.886;2023-09-07T11:18:12;5.93;;;4.97;;
13951;SDS011;39535;52.192;9.886;2023-09-07T11:20:39;5.07;;;4.67;;
13951;SDS011;39535;52.192;9.886;2023-09-07T11:23:05;5.47;;;5.07;;
13951;SDS011;39535;52.192;9.886;2023-09-07T11:25:35;5.73;;;5.23;;
13951;SDS011;39535;52.192;9.886;2023-09-07T11:28:03;5.80;;;5.30;;
13951;SDS011;39535;52.192;9.886;2023-09-07T11:30:30;5.93;;;5.43;;
13951;SDS011;39535;52.192;9.886;2023-09-07T11:33:00;5.97;;;5.57;;
13951;SDS011;39535;52.192;9.886;2023-09-07T11:35:28;5.27;;;4.87;;
13951;SDS011;39535;52.192;9.886;2023-09-07T11:37:54;6.00;;;5.40;;
13951;SDS011;39535;52.192;9.886;2023-09-07T11:40:21;5.23;;;4.93;;
13951;SDS011;39535;52.192;9.886;2023-09-07T11:42:48;5.80;;;5.30;;
13951;SDS011;39535;52.192;9.886;2023-09-07T11:45:15;5.17;;;4.77;;
13951;SDS011;39535;52.192;9.886;2023-09-07T11:47:43;5.20;;;4.80;;
13951;SDS011;39535;52.192;9.886;2023-09-07T11:50:09;5.57;;;5.17;;
13951;SDS011;39535;52.192;9.886;2023-09-07T11:52:36;5.70;;;5.20;;
13951;SDS011;39535;52.192;9.886;2023-09-07T11:55:02;7.00;;;5.60;;
13951;SDS011;39535;52.192;9.886;2023-09-07T11:57:29;5.60;;;5.27;;
13951;SDS011;39535;52.192;9.886;2023-09-07T11:59:57;5.70;;;5.20;;
13951;SDS011;39535;52.192;9.886;2023-09-07T12:02:24;5.30;;;4.80;;
13951;SDS011;39535;52.192;9.886;2023-09-07T12:04:51;6.07;;;5.77;;
13951;SDS011;39535;52.192;9.886;2023-09-07T12:07:19;5.75;;;5.30;;
13951;SDS011;39535;52.192;9.886;2023-09-07T12:09:47;6.03;;;5.63;;
13951;SDS011;39535;52.192;9.886;2023-09-07T12:12:14;5.47;;;5.07;;
13951;SDS011;39535;52.192;9.886;2023-09-07T12:14:40;5.53;;;5.13;;
13951;SDS011;39535;52.192;9.886;2023-09-07T12:17:08;8.73;;;4.50;;
13951;SDS011;39535;52.192;9.886;2023-09-07T12:19:34;5.80;;;5.40;;
13951;SDS011;39535;52.192;9.886;2023-09-07T12:22:01;5.20;;;4.80;;
13951;SDS011;39535;52.192;9.886;2023-09-07T12:24:28;5.63;;;5.33;;
13951;SDS011;39535;52.192;9.886;2023-09-07T12:26:54;5.70;;;5.30;;
13951;SDS011;39535;52.192;9.886;2023-09-07T12:29:21;6.00;;;5.60;;
13951;SDS011;39535;52.192;9.886;2023-09-07T12:31:47;5.60;;;5.20;;
13951;SDS011;39535;52.192;9.886;2023-09-07T12:34:15;5.60;;;5.20;;
13951;SDS011;39535;52.192;9.886;2023-09-07T12:36:41;5.37;;;4.97;;
13951;SDS011;39535;52.192;9.886;2023-09-07T12:39:08;5.33;;;5.07;;
13951;SDS011;39535;52.192;9.886;2023-09-07T12:41:37;5.90;;;5.23;;
13951;SDS011;39535;52.192;9.886;2023-09-07T12:44:04;5.97;;;5.53;;
13951;SDS011;39535;52.192;9.886;2023-09-07T12:46:31;5.60;;;5.20;;
13951;SDS011;39535;52.192;9.886;2023-09-07T12:49:02;6.40;;;5.40;;
13951;SDS011;39535;52.192;9.886;2023-09-07T12:51:30;6.10;;;5.70;;
13951;SDS011;39535;52.192;9.886;2023-09-07T12:53:56;5.73;;;5.43;;
13951;SDS011;39535;52.192;9.886;2023-09-07T12:56:23;5.90;;;5.50;;
13951;SDS011;39535;52.192;9.886;2023-09-07T12:58:49;6.17;;;5.77;;
13951;SDS011;39535;52.192;9.886;2023-09-07T13:01:17;5.50;;;5.10;;
13951;SDS011;39535;52.192;9.886;2023-09-07T13:03:43;6.40;;;6.00;;
13951;SDS011;39535;52.192;9.886;2023-09-07T13:06:19;5.87;;;5.00;;
13951;SDS011;39535;52.192;9.886;2023-09-07T13:08:50;5.57;;;5.17;;
13951;SDS011;39535;52.192;9.886;2023-09-07T13:11:19;5.37;;;4.97;;
13951;SDS011;39535;52.192;9.886;2023-09-07T13:13:47;5.70;;;5.33;;
13951;SDS011;39535;52.192;9.886;2023-09-07T13:16:14;5.87;;;5.30;;
13951;SDS011;39535;52.192;9.886;2023-09-07T13:18:40;5.47;;;5.07;;
13951;SDS011;39535;52.192;9.886;2023-09-07T13:21:09;5.93;;;5.37;;
13951;SDS011;39535;52.192;9.886;2023-09-07T13:23:37;5.60;;;5.13;;
13951;SDS011;39535;52.192;9.886;2023-09-07T13:26:09;5.97;;;5.53;;
13951;SDS011;39535;52.192;9.886;2023-09-07T13:28:36;5.07;;;4.77;;
13951;SDS011;39535;52.192;9.886;2023-09-07T13:31:03;5.03;;;4.73;;
13951;SDS011;39535;52.192;9.886;2023-09-07T13:33:29;5.57;;;5.07;;
13951;SDS011;39535;52.192;9.886;2023-09-07T13:36:03;5.77;;;5.17;;
13951;SDS011;39535;52.192;9.886;2023-09-07T13:38:29;5.03;;;4.63;;
13951;SDS011;39535;52.192;9.886;2023-09-07T13:41:05;9.30;;;5.20;;
13951;SDS011;39535;52.192;9.886;2023-09-07T13:43:46;5.73;;;5.33;;
13951;SDS011;39535;52.192;9.886;2023-09-07T13:46:12;5.17;;;4.70;;
13951;SDS011;39535;52.192;9.886;2023-09-07T13:48:39;4.90;;;4.60;;
13951;SDS011;39535;52.192;9.886;2023-09-07T13:51:05;5.30;;;5.00;;
13951;SDS011;39535;52.192;9.886;2023-09-07T13:53:44;5.30;;;4.80;;
13951;SDS011;39535;52.192;9.886;2023-09-07T13:56:12;5.20;;;4.90;;
13951;SDS011;39535;52.192;9.886;2023-09-07T13:58:49;5.00;;;4.60;;
13951;SDS011;39535;52.192;9.886;2023-09-07T14:01:16;5.00;;;4.70;;
13951;SDS011;39535;52.192;9.886;2023-09-07T14:03:42;4.57;;;4.33;;
13951;SDS011;39535;52.192;9.886;2023-09-07T14:06:21;5.00;;;4.60;;
13951;SDS011;39535;52.192;9.886;2023-09-07T14:08:52;5.50;;;5.10;;
13951;SDS011;39535;52.192;9.886;2023-09-07T14:11:21;4.53;;;4.13;;
13951;SDS011;39535;52.192;9.886;2023-09-07T14:13:53;5.03;;;4.53;;
13951;SDS011;39535;52.192;9.886;2023-09-07T14:16:20;5.50;;;4.40;;
13951;SDS011;39535;52.192;9.886;2023-09-07T14:18:50;5.33;;;4.93;;
13951;SDS011;39535;52.192;9.886;2023-09-07T14:21:17;4.90;;;4.63;;
13951;SDS011;39535;52.192;9.886;2023-09-07T14:23:44;5.53;;;5.13;;
13951;SDS011;39535;52.192;9.886;2023-09-07T14:26:15;4.97;;;4.57;;
13951;SDS011;39535;52.192;9.886;2023-09-07T14:28:45;6.10;;;4.50;;
13951;SDS011;39535;52.192;9.886;2023-09-07T14:31:14;4.93;;;4.63;;
13951;SDS011;39535;52.192;9.886;2023-09-07T14:33:44;4.77;;;4.33;;
13951;SDS011;39535;52.192;9.886;2023-09-07T14:36:19;5.53;;;4.80;;
13951;SDS011;39535;52.192;9.886;2023-09-07T14:38:52;4.93;;;4.50;;
13951;SDS011;39535;52.192;9.886;2023-09-07T14:41:22;5.47;;;4.80;;
13951;SDS011;39535;52.192;9.886;2023-09-07T14:43:50;5.00;;;4.60;;
13951;SDS011;39535;52.192;9.886;2023-09-07T14:46:26;4.93;;;4.50;;
13951;SDS011;39535;52.192;9.886;2023-09-07T14:48:55;5.43;;;4.60;;
13951;SDS011;39535;52.192;9.886;2023-09-07T14:51:24;5.03;;;4.63;;
13951;SDS011;39535;52.192;9.886;2023-09-07T14:53:52;5.10;;;4.70;;